Time;durP1;ratioP1;P1;durP2;ratioP2;P2;SDS_P1;SDS_P2;PMS_P1;PMS_P2;Temp;Humidity;BMP_temperature;BMP_pressure;BME280_temperature;BME280_humidity;BME280_pressure;Samples;Min_cycle;Max_cycle;Signal;HPM_P1;HPM_P2
2024/02/28 00:01:52;;;;;;;7.90;3.15;;;-2.70;90.00;;;;;;5086984;28;20162;-81
2024/02/28 00:04:18;;;;;;;9.37;2.83;;;-2.70;90.10;;;;;;5092256;28;20016;-79
2024/02/28 00:06:46;;;;;;;6.60;4.03;;;-2.70;90.10;;;;;;5092562;28;20781;-80
2024/02/28 00:09:13;;;;;;;;;;;-2.70;90.10;;;;;;5092983;28;20019;-80
2024/02/28 00:11:46;;;;;;;9.32;4.00;;;-2.70;90.10;;;;;;5092644;28;19923;-81
2024/02/28 00:14:15;;;;;;;6.95;3.80;;;-2.70;90.20;;;;;;5092152;28;20077;-80
2024/02/28 00:16:42;;;;;;;7.45;4.70;;;-2.70;90.20;;;;;;5092501;28;20098;-81
2024/02/28 00:19:08;;;;;;;11.80;5.80;;;-2.70;90.30;;;;;;5090971;28;20085;-81
2024/02/28 00:21:34;;;;;;;10.15;5.03;;;-2.70;90.40;;;;;;5092232;28;20028;-81
2024/02/28 00:24:00;;;;;;;9.32;3.40;;;-2.80;90.40;;;;;;5092415;28;20020;-80
2024/02/28 00:26:26;;;;;;;17.85;6.00;;;-2.80;90.50;;;;;;5089716;28;20409;-80
2024/02/28 00:28:51;;;;;;;14.20;6.15;;;-2.80;90.60;;;;;;5092073;28;20059;-81
2024/02/28 00:31:17;;;;;;;9.40;4.93;;;-2.80;90.50;;;;;;5091773;28;20051;-79
2024/02/28 00:33:43;;;;;;;8.00;4.50;;;-2.80;90.50;;;;;;5092379;28;20008;-80
2024/02/28 00:36:09;;;;;;;15.18;4.63;;;-2.80;90.50;;;;;;5087836;28;20036;-81
2024/02/28 00:38:35;;;;;;;9.35;5.00;;;-2.70;90.60;;;;;;5088763;28;20064;-80
2024/02/28 00:41:00;;;;;;;9.80;5.60;;;-2.80;90.60;;;;;;5087121;28;20024;-80
2024/02/28 00:43:26;;;;;;;11.43;4.85;;;-2.80;90.60;;;;;;5088043;28;20146;-80
2024/02/28 00:45:52;;;;;;;8.32;4.57;;;-2.70;90.70;;;;;;5092331;28;20016;-83
2024/02/28 00:48:18;;;;;;;9.63;4.85;;;-2.70;90.70;;;;;;5092478;28;20024;-80
2024/02/28 00:50:44;;;;;;;9.45;5.40;;;-2.80;90.70;;;;;;5101504;28;20098;-81
2024/02/28 00:53:09;;;;;;;10.57;5.55;;;-2.80;90.80;;;;;;5092114;28;20024;-80
2024/02/28 00:55:35;;;;;;;12.13;5.60;;;-2.80;90.90;;;;;;5086214;28;20020;-80
2024/02/28 00:58:01;;;;;;;8.48;4.55;;;-2.80;90.90;;;;;;5092925;28;20048;-80
2024/02/28 01:00:27;;;;;;;15.23;7.00;;;-2.80;90.90;;;;;;5091995;28;20038;-81
2024/02/28 01:02:52;;;;;;;14.20;6.22;;;-2.70;90.80;;;;;;5091788;28;20020;-81
2024/02/28 01:05:18;;;;;;;8.55;5.65;;;-2.80;90.90;;;;;;5090677;28;20848;-78
2024/02/28 01:07:45;;;;;;;10.90;6.10;;;-2.70;90.90;;;;;;5091579;28;20047;-80
2024/02/28 01:10:11;;;;;;;8.20;4.88;;;-2.80;90.90;;;;;;5091996;28;20018;-80
2024/02/28 01:12:37;;;;;;;4.68;3.20;;;-2.80;91.10;;;;;;5085849;28;20028;-79
2024/02/28 01:15:03;;;;;;;9.77;5.82;;;-2.80;91.10;;;;;;5091371;28;20017;-79
2024/02/28 01:17:30;;;;;;;10.73;6.20;;;-2.80;91.10;;;;;;5086020;28;20074;-80
2024/02/28 01:19:56;;;;;;;13.40;5.38;;;-2.80;91.10;;;;;;5088854;28;20777;-79
2024/02/28 01:22:22;;;;;;;8.75;5.70;;;-2.80;91.20;;;;;;5091432;28;20043;-80
2024/02/28 01:24:48;;;;;;;8.90;4.63;;;-2.80;91.20;;;;;;5088092;28;20036;-80
2024/02/28 01:27:14;;;;;;;5.85;3.05;;;-2.80;91.20;;;;;;5091361;28;20024;-80
2024/02/28 01:29:39;;;;;;;11.13;4.60;;;-2.80;91.20;;;;;;5090071;28;20552;-80
2024/02/28 01:32:05;;;;;;;10.57;5.05;;;-2.80;91.30;;;;;;5092056;28;20040;-81
2024/02/28 01:34:31;;;;;;;8.38;5.40;;;-2.80;91.40;;;;;;5094881;28;20382;-80
2024/02/28 01:36:57;;;;;;;10.48;5.57;;;-2.80;91.40;;;;;;5093852;28;20048;-81
2024/02/28 01:39:23;;;;;;;8.07;4.05;;;-2.90;91.50;;;;;;5095213;28;20103;-81
2024/02/28 01:41:55;;;;;;;11.52;5.93;;;-2.80;91.50;;;;;;5090586;28;20024;-81
2024/02/28 01:44:21;;;;;;;11.05;5.18;;;-2.90;91.50;;;;;;5095023;28;20016;-81
2024/02/28 01:46:47;;;;;;;11.27;5.68;;;-2.90;91.50;;;;;;5094992;28;20024;-81
2024/02/28 01:49:14;;;;;;;13.25;5.20;;;-2.90;91.60;;;;;;5084255;28;20021;-80
2024/02/28 01:51:41;;;;;;;9.90;6.15;;;-2.90;91.60;;;;;;5093122;28;20038;-80
2024/02/28 01:54:07;;;;;;;8.27;5.57;;;-2.90;91.70;;;;;;5093291;28;20477;-80
2024/02/28 01:56:34;;;;;;;11.68;5.78;;;-2.90;91.70;;;;;;5093867;28;20024;-82
2024/02/28 01:59:01;;;;;;;10.17;6.60;;;-2.90;91.80;;;;;;5093783;28;20389;-80
2024/02/28 02:01:27;;;;;;;10.88;4.05;;;-2.90;91.80;;;;;;5095263;28;20533;-81
2024/02/28 02:03:54;;;;;;;10.25;4.90;;;-2.90;92.10;;;;;;5094886;28;20381;-80
2024/02/28 02:06:20;;;;;;;12.43;6.35;;;-2.90;91.90;;;;;;5092872;28;20031;-81
2024/02/28 02:08:47;;;;;;;11.20;6.32;;;-2.90;91.90;;;;;;5093295;28;20020;-79
2024/02/28 02:11:18;;;;;;;6.97;3.55;;;-2.90;91.90;;;;;;5093136;28;20024;-82
2024/02/28 02:13:51;;;;;;;7.93;5.00;;;-2.90;91.90;;;;;;5095316;28;20059;-81
2024/02/28 02:16:18;;;;;;;9.18;5.90;;;-2.90;92.00;;;;;;5094962;28;20419;-79
2024/02/28 02:18:44;;;;;;;12.20;5.63;;;-2.90;92.00;;;;;;5093323;28;20400;-80
2024/02/28 02:21:12;;;;;;;9.23;5.63;;;-2.90;92.00;;;;;;5094342;28;20020;-80
2024/02/28 02:23:41;;;;;;;13.65;6.50;;;-2.90;92.10;;;;;;5084943;28;20775;-80
2024/02/28 02:26:07;;;;;;;4.35;2.85;;;-2.90;92.20;;;;;;5094966;28;20524;-80
2024/02/28 02:28:33;;;;;;;9.13;4.55;;;-2.90;92.50;;;;;;5094378;28;20023;-79
2024/02/28 02:30:59;;;;;;;10.45;5.13;;;-2.90;92.40;;;;;;5097627;28;20473;-80
2024/02/28 02:33:25;;;;;;;10.40;6.82;;;-2.90;92.50;;;;;;5097288;28;20031;-79
2024/02/28 02:35:53;;;;;;;7.72;3.65;;;-2.90;92.50;;;;;;5086652;28;20020;-80
2024/02/28 02:38:19;;;;;;;14.50;6.65;;;-2.90;92.60;;;;;;5088679;28;20136;-81
2024/02/28 02:40:49;;;;;;;8.95;5.43;;;-2.90;92.60;;;;;;5092308;28;20481;-80
2024/02/28 02:43:15;;;;;;;9.45;4.70;;;-2.90;92.60;;;;;;5091022;28;20024;-80
2024/02/28 02:45:41;;;;;;;12.07;5.60;;;-2.90;92.70;;;;;;5096564;28;20396;-80
2024/02/28 02:48:07;;;;;;;9.20;4.65;;;-2.90;92.70;;;;;;5095984;28;20052;-79
2024/02/28 02:50:33;;;;;;;6.50;5.05;;;-2.90;92.70;;;;;;5096972;28;20020;-81
2024/02/28 02:52:59;;;;;;;10.55;5.50;;;-2.90;92.70;;;;;;5091352;28;20036;-82
2024/02/28 02:55:24;;;;;;;11.65;5.50;;;-2.90;92.70;;;;;;5091605;28;20026;-79
2024/02/28 02:57:50;;;;;;;14.20;6.15;;;-2.90;92.80;;;;;;5094100;28;20031;-81
2024/02/28 03:00:16;;;;;;;17.58;6.88;;;-3.00;92.80;;;;;;5094025;28;20070;-83
2024/02/28 03:02:42;;;;;;;13.23;6.03;;;-2.90;92.90;;;;;;5093635;28;20051;-80
2024/02/28 03:05:09;;;;;;;9.57;5.13;;;-2.90;93.00;;;;;;5088672;28;20811;-79
2024/02/28 03:07:35;;;;;;;13.23;6.22;;;-2.90;93.00;;;;;;5092964;28;20051;-80
2024/02/28 03:10:01;;;;;;;17.73;7.47;;;-2.90;93.00;;;;;;5089256;28;20031;-80
2024/02/28 03:12:27;;;;;;;12.27;6.93;;;-2.90;93.00;;;;;;5085036;28;20060;-81
2024/02/28 03:14:53;;;;;;;11.43;5.10;;;-2.90;93.10;;;;;;5093504;28;20047;-80
2024/02/28 03:17:19;;;;;;;9.02;5.78;;;-2.90;93.10;;;;;;5093378;28;20508;-81
2024/02/28 03:19:45;;;;;;;13.02;6.10;;;-2.90;93.10;;;;;;5093243;28;20108;-83
2024/02/28 03:22:10;;;;;;;10.07;6.03;;;-2.90;93.10;;;;;;5091980;28;20479;-82
2024/02/28 03:24:37;;;;;;;11.60;5.78;;;-2.90;93.40;;;;;;5086991;28;20031;-80
2024/02/28 03:27:03;;;;;;;8.95;5.05;;;-2.90;93.20;;;;;;5079030;28;20081;-79
2024/02/28 03:29:29;;;;;;;10.25;5.80;;;-2.90;93.20;;;;;;5093323;28;20031;-80
2024/02/28 03:31:55;;;;;;;11.10;5.82;;;-2.80;93.30;;;;;;5093833;28;20504;-82
2024/02/28 03:34:21;;;;;;;12.45;5.43;;;-2.80;93.30;;;;;;5092906;28;20035;-81
2024/02/28 03:36:47;;;;;;;25.50;8.05;;;-2.80;93.40;;;;;;5090848;28;20024;-81
2024/02/28 03:39:13;;;;;;;8.13;4.38;;;-2.80;93.30;;;;;;5085016;28;20075;-80
2024/02/28 03:41:39;;;;;;;13.13;6.55;;;-2.80;93.30;;;;;;5086297;28;20160;-82
2024/02/28 03:44:05;;;;;;;10.68;5.30;;;-2.90;93.30;;;;;;5092998;28;20028;-82
2024/02/28 03:46:31;;;;;;;12.13;4.95;;;-2.90;93.30;;;;;;5091624;28;20059;-80
2024/02/28 03:48:57;;;;;;;15.00;7.03;;;-2.90;93.30;;;;;;5084107;28;20044;-81
2024/02/28 03:51:23;;;;;;;11.70;6.72;;;-3.00;93.30;;;;;;5091768;28;20044;-80
2024/02/28 03:53:49;;;;;;;17.20;6.95;;;-3.00;93.40;;;;;;5093269;28;20012;-78
2024/02/28 03:56:23;;;;;;;10.45;5.35;;;-3.00;93.40;;;;;;5079065;28;20490;-81
2024/02/28 03:58:49;;;;;;;14.50;7.03;;;-3.00;93.40;;;;;;5089818;28;20385;-82
2024/02/28 04:01:15;;;;;;;18.15;8.95;;;-3.00;93.40;;;;;;5091684;28;20024;-80
2024/02/28 04:03:41;;;;;;;15.35;6.60;;;-3.00;93.50;;;;;;5092038;28;20020;-81
2024/02/28 04:06:07;;;;;;;12.90;5.93;;;-3.00;93.50;;;;;;5089647;28;20024;-81
2024/02/28 04:08:33;;;;;;;15.02;7.28;;;-3.00;93.50;;;;;;5091065;28;20500;-81
2024/02/28 04:10:59;;;;;;;13.75;5.70;;;-3.00;93.50;;;;;;5086191;28;20420;-80
2024/02/28 04:13:24;;;;;;;10.95;5.65;;;-3.00;93.50;;;;;;5080899;28;20497;-81
2024/02/28 04:15:51;;;;;;;12.38;6.63;;;-3.00;93.50;;;;;;5084990;28;20019;-79
2024/02/28 04:18:16;;;;;;;10.90;5.78;;;-3.00;93.50;;;;;;5092400;28;20050;-80
2024/02/28 04:20:42;;;;;;;7.70;4.43;;;-3.00;93.60;;;;;;5093627;28;20020;-80
2024/02/28 04:23:08;;;;;;;13.25;5.63;;;-3.00;93.60;;;;;;5092427;28;20031;-79
2024/02/28 04:25:35;;;;;;;13.32;6.05;;;-3.00;93.70;;;;;;5091345;28;20020;-81
2024/02/28 04:28:02;;;;;;;12.20;6.88;;;-3.00;93.70;;;;;;5091176;28;20020;-81
2024/02/28 04:30:28;;;;;;;21.77;4.97;;;-3.00;93.70;;;;;;5092397;28;20012;-81
2024/02/28 04:32:54;;;;;;;11.23;6.45;;;-3.00;93.70;;;;;;5090683;28;20489;-82
2024/02/28 04:35:20;;;;;;;17.70;7.03;;;-3.00;93.80;;;;;;5090123;28;20016;-81
2024/02/28 04:37:49;;;;;;;11.32;6.28;;;-2.90;93.90;;;;;;5090240;28;20048;-81
2024/02/28 04:40:15;;;;;;;16.45;6.53;;;-2.90;93.80;;;;;;5087598;28;20017;-83
2024/02/28 04:42:43;;;;;;;14.05;6.47;;;-2.90;93.80;;;;;;5085323;28;20103;-82
2024/02/28 04:45:09;;;;;;;;;;;-2.90;93.80;;;;;;5091568;28;20028;-81
2024/02/28 04:47:36;;;;;;;14.27;6.67;;;-2.80;93.80;;;;;;5082470;28;20365;-81
2024/02/28 04:50:04;;;;;;;10.93;6.10;;;-2.80;93.70;;;;;;5087806;28;20016;-81
2024/02/28 04:52:31;;;;;;;17.27;5.72;;;-2.80;93.70;;;;;;5091807;28;20511;-80
2024/02/28 04:54:57;;;;;;;7.57;5.23;;;-2.80;93.60;;;;;;5090935;28;20373;-83
2024/02/28 04:57:22;;;;;;;11.45;4.97;;;-2.80;93.70;;;;;;5074575;28;20032;-82
2024/02/28 04:59:49;;;;;;;11.00;6.57;;;-2.80;93.70;;;;;;5088096;28;20886;-82
2024/02/28 05:02:15;;;;;;;9.52;4.60;;;-2.80;93.60;;;;;;5081156;28;20078;-84
2024/02/28 05:04:41;;;;;;;12.02;6.10;;;-2.80;93.60;;;;;;5084242;28;20188;-83
2024/02/28 05:07:07;;;;;;;6.03;4.45;;;-2.80;93.50;;;;;;5091365;28;20438;-84
2024/02/28 05:09:33;;;;;;;11.43;5.32;;;-2.80;93.50;;;;;;5092075;28;20097;-84
2024/02/28 05:11:59;;;;;;;9.63;4.53;;;-2.80;93.60;;;;;;5092866;28;20337;-83
2024/02/28 05:14:25;;;;;;;11.52;5.40;;;-2.70;93.50;;;;;;5089050;28;20107;-83
2024/02/28 05:16:51;;;;;;;11.43;5.22;;;-2.70;93.60;;;;;;5088533;28;20024;-84
2024/02/28 05:19:20;;;;;;;12.15;6.35;;;-2.70;93.50;;;;;;5092031;28;20043;-84
2024/02/28 05:21:46;;;;;;;9.82;5.50;;;-2.60;93.50;;;;;;5096284;28;20064;-83
2024/02/28 05:24:12;;;;;;;14.40;6.13;;;-2.60;93.40;;;;;;5096160;28;20053;-83
2024/02/28 05:26:38;;;;;;;12.10;6.45;;;-2.60;93.30;;;;;;5088364;28;20028;-82
2024/02/28 05:29:05;;;;;;;13.80;5.88;;;-2.50;93.30;;;;;;5096306;28;20034;-83
2024/02/28 05:31:31;;;;;;;13.63;5.87;;;-2.50;93.20;;;;;;5088116;28;20032;-83
2024/02/28 05:33:59;;;;;;;12.10;6.40;;;-2.40;93.30;;;;;;5093909;28;20095;-82
2024/02/28 05:36:26;;;;;;;11.23;6.90;;;-2.40;93.30;;;;;;5094523;28;20288;-83
2024/02/28 05:38:53;;;;;;;15.05;5.97;;;-2.30;93.40;;;;;;5095210;28;20036;-83
2024/02/28 05:41:19;;;;;;;;;;;-2.30;93.20;;;;;;5097139;28;20681;-83
2024/02/28 05:43:46;;;;;;;14.95;6.20;;;-2.20;93.20;;;;;;5096500;28;19990;-83
2024/02/28 05:46:13;;;;;;;13.15;6.38;;;-2.10;93.20;;;;;;5096210;28;20139;-84
2024/02/28 05:48:41;;;;;;;12.10;5.43;;;-2.10;93.10;;;;;;5083658;28;20032;-83
2024/02/28 05:51:07;;;;;;;13.40;4.95;;;-2.00;93.00;;;;;;5095309;28;20539;-83
2024/02/28 05:53:35;;;;;;;16.65;8.43;;;-2.00;93.00;;;;;;5095462;28;20099;-82
2024/02/28 05:56:02;;;;;;;15.30;6.05;;;-1.90;92.90;;;;;;5095414;28;20081;-83
2024/02/28 05:58:28;;;;;;;14.07;7.67;;;-1.90;92.70;;;;;;5083947;28;20021;-84
2024/02/28 06:00:54;;;;;;;10.45;6.43;;;-1.90;92.80;;;;;;5088227;28;20020;-82
2024/02/28 06:03:20;;;;;;;11.38;6.32;;;-1.80;92.80;;;;;;5098675;28;20104;-85
2024/02/28 06:05:46;;;;;;;14.50;6.35;;;-1.70;92.80;;;;;;5092222;28;20056;-83
2024/02/28 06:08:12;;;;;;;10.35;5.82;;;-1.60;92.70;;;;;;5100326;28;20095;-82
2024/02/28 06:10:38;;;;;;;15.15;6.97;;;-1.50;92.90;;;;;;5086231;28;20083;-82
2024/02/28 06:13:04;;;;;;;13.52;5.93;;;-1.50;92.50;;;;;;5102854;28;20067;-83
2024/02/28 06:15:30;;;;;;;9.05;5.10;;;-1.40;92.50;;;;;;5087892;28;20035;-80
2024/02/28 06:17:59;;;;;;;14.13;6.70;;;-1.40;92.40;;;;;;5083404;28;20039;-85
2024/02/28 06:20:25;;;;;;;10.93;5.97;;;-1.30;92.30;;;;;;5090082;28;20048;-82
2024/02/28 06:22:50;;;;;;;12.30;6.50;;;-1.20;92.30;;;;;;5085236;28;20362;-80
2024/02/28 06:25:22;;;;;;;9.43;6.03;;;-1.20;92.30;;;;;;5094131;28;20411;-82
2024/02/28 06:27:48;;;;;;;19.15;8.30;;;-1.10;92.30;;;;;;5094942;28;20368;-82
2024/02/28 06:30:14;;;;;;;12.20;7.07;;;-1.00;92.20;;;;;;5094534;28;20464;-81
2024/02/28 06:32:40;;;;;;;18.00;7.97;;;-1.00;92.10;;;;;;5080279;28;20028;-84
2024/02/28 06:35:07;;;;;;;14.93;6.47;;;-0.90;92.00;;;;;;5092275;28;20069;-85
2024/02/28 06:37:34;;;;;;;9.55;5.20;;;-0.80;92.00;;;;;;5094051;28;20052;-84
2024/02/28 06:40:00;;;;;;;22.25;8.30;;;-0.80;91.90;;;;;;5092673;28;20025;-82
2024/02/28 06:42:26;;;;;;;12.73;6.72;;;-0.70;92.20;;;;;;5086034;28;20378;-84
2024/02/28 06:44:51;;;;;;;21.88;7.20;;;-0.60;92.00;;;;;;5094523;28;20019;-83
2024/02/28 06:47:20;;;;;;;13.82;7.32;;;-0.50;92.00;;;;;;5085837;28;20359;-83
2024/02/28 06:49:46;;;;;;;10.40;6.55;;;-0.40;91.90;;;;;;5092841;28;20431;-83
2024/02/28 06:52:12;;;;;;;14.60;7.25;;;-0.30;91.80;;;;;;5093124;28;20036;-84
2024/02/28 06:54:38;;;;;;;29.38;7.68;;;-0.40;91.30;;;;;;5093988;28;20028;-81
2024/02/28 06:57:04;;;;;;;13.68;7.22;;;-0.30;91.50;;;;;;5093721;28;20473;-83
2024/02/28 06:59:30;;;;;;;13.27;7.97;;;-0.30;91.50;;;;;;5093618;28;20032;-83
2024/02/28 07:01:55;;;;;;;10.73;6.80;;;-0.20;91.40;;;;;;5094083;28;20085;-83
2024/02/28 07:04:21;;;;;;;18.60;7.38;;;-0.10;91.40;;;;;;5079127;28;20042;-85
2024/02/28 07:06:47;;;;;;;13.50;6.43;;;-0.10;91.30;;;;;;5094689;28;20059;-84
2024/02/28 07:09:15;;;;;;;10.30;6.25;;;0.00;91.20;;;;;;5092790;28;20055;-81
2024/02/28 07:11:41;;;;;;;15.55;7.40;;;0.00;91.30;;;;;;5094627;28;20024;-84
2024/02/28 07:14:07;;;;;;;13.00;6.80;;;0.10;91.40;;;;;;5093072;28;20024;-83
2024/02/28 07:16:34;;;;;;;19.33;8.83;;;0.20;91.30;;;;;;5092623;28;20024;-85
2024/02/28 07:19:01;;;;;;;13.52;6.25;;;0.30;91.20;;;;;;5051397;28;20820;-85
2024/02/28 07:21:27;;;;;;;12.50;7.03;;;0.30;90.90;;;;;;5051455;28;20033;-86
2024/02/28 07:23:54;;;;;;;12.20;7.22;;;0.30;90.60;;;;;;5051656;28;20040;-82
2024/02/28 07:26:20;;;;;;;10.05;5.32;;;0.30;90.60;;;;;;5051363;28;20021;-82
2024/02/28 07:28:52;;;;;;;12.05;7.13;;;0.40;90.70;;;;;;5051485;28;20128;-84
2024/02/28 07:31:18;;;;;;;14.98;7.25;;;0.40;90.40;;;;;;5050618;28;20167;-83
2024/02/28 07:33:45;;;;;;;15.50;6.37;;;0.50;90.50;;;;;;5050578;28;20390;-83
2024/02/28 07:36:11;;;;;;;14.73;7.57;;;0.60;90.70;;;;;;5050443;28;20032;-83
2024/02/28 07:38:37;;;;;;;12.02;6.75;;;0.60;90.20;;;;;;5050233;28;20056;-82
2024/02/28 07:41:03;;;;;;;17.70;6.93;;;0.70;90.20;;;;;;5050523;28;20024;-83
2024/02/28 07:43:32;;;;;;;9.88;5.22;;;0.80;90.20;;;;;;5050702;28;20603;-84
2024/02/28 07:45:59;;;;;;;9.27;5.88;;;1.00;90.20;;;;;;5051500;28;20029;-83
2024/02/28 07:48:25;;;;;;;14.50;7.78;;;1.10;90.00;;;;;;5055588;28;20558;-84
2024/02/28 07:50:51;;;;;;;14.70;7.43;;;1.20;89.80;;;;;;5053695;28;20060;-82
2024/02/28 07:53:20;;;;;;;12.00;6.70;;;1.20;88.60;;;;;;5050953;28;20044;-85
2024/02/28 07:55:45;;;;;;;9.73;5.03;;;1.10;88.10;;;;;;5040763;28;20555;-85
2024/02/28 07:58:11;;;;;;;10.27;5.60;;;1.20;88.20;;;;;;5086031;28;20032;-83
2024/02/28 08:00:37;;;;;;;11.05;6.97;;;1.20;88.30;;;;;;5093676;28;20027;-82
2024/02/28 08:03:04;;;;;;;11.05;6.80;;;1.30;88.50;;;;;;5093890;28;20020;-81
2024/02/28 08:05:29;;;;;;;11.85;5.90;;;1.40;88.40;;;;;;5098142;28;20531;-83
2024/02/28 08:07:55;;;;;;;8.77;5.90;;;1.50;87.60;;;;;;5088695;28;20036;-82
2024/02/28 08:10:21;;;;;;;18.02;9.07;;;1.60;87.10;;;;;;5072665;28;20083;-85
2024/02/28 08:12:47;;;;;;;12.55;6.20;;;1.60;86.90;;;;;;5083200;28;20425;-81
2024/02/28 08:15:13;;;;;;;13.77;6.55;;;1.80;86.60;;;;;;5092631;28;20177;-82
2024/02/28 08:17:38;;;;;;;10.13;7.03;;;2.00;87.00;;;;;;5092370;28;20051;-84
2024/02/28 08:20:05;;;;;;;14.02;7.72;;;2.20;86.90;;;;;;5092743;28;20023;-83
2024/02/28 08:22:31;;;;;;;9.25;4.50;;;2.90;85.90;;;;;;5092649;28;20024;-83
2024/02/28 08:24:57;;;;;;;11.82;6.85;;;4.00;83.70;;;;;;5092450;28;20028;-82
2024/02/28 08:27:23;;;;;;;9.50;6.55;;;4.70;80.50;;;;;;5092623;28;20483;-83
2024/02/28 08:29:52;;;;;;;13.80;6.88;;;5.30;76.60;;;;;;5092432;28;20473;-82
2024/02/28 08:32:18;;;;;;;8.57;5.78;;;6.20;77.60;;;;;;5092946;28;20105;-83
2024/02/28 08:34:47;;;;;;;17.08;7.70;;;7.50;74.20;;;;;;5092724;28;20024;-83
2024/02/28 08:37:13;;;;;;;11.05;6.53;;;8.40;71.10;;;;;;5099899;28;20048;-82
2024/02/28 08:39:39;;;;;;;19.75;7.40;;;9.10;68.40;;;;;;5093647;28;20116;-82
2024/02/28 08:42:06;;;;;;;12.50;6.72;;;9.60;67.10;;;;;;5092002;28;20059;-83
2024/02/28 08:44:31;;;;;;;9.75;5.68;;;10.00;64.50;;;;;;5092171;28;20031;-82
2024/02/28 08:46:57;;;;;;;13.88;6.72;;;10.00;62.50;;;;;;5091928;28;20389;-83
2024/02/28 08:49:23;;;;;;;13.77;7.70;;;9.40;61.60;;;;;;5090845;28;20115;-82
2024/02/28 08:51:49;;;;;;;16.30;8.23;;;9.70;62.20;;;;;;5092593;28;20062;-82
2024/02/28 08:54:15;;;;;;;13.60;8.13;;;9.90;61.80;;;;;;5091113;28;20076;-82
2024/02/28 08:56:41;;;;;;;11.45;7.25;;;10.70;60.80;;;;;;5094138;28;20024;-83
2024/02/28 08:59:07;;;;;;;8.57;5.32;;;11.30;58.00;;;;;;5092408;28;20135;-82
2024/02/28 09:01:34;;;;;;;10.00;6.88;;;11.40;57.20;;;;;;5091967;28;20139;-81
2024/02/28 09:04:00;;;;;;;11.75;5.82;;;10.60;56.30;;;;;;5090275;28;20033;-84
2024/02/28 09:06:27;;;;;;;13.43;6.77;;;9.70;57.20;;;;;;5091729;28;20051;-83
2024/02/28 09:08:52;;;;;;;7.70;5.10;;;8.90;59.50;;;;;;5091852;28;20025;-82
2024/02/28 09:11:18;;;;;;;10.80;6.53;;;9.10;59.50;;;;;;5091536;28;20036;-84
2024/02/28 09:13:45;;;;;;;7.63;5.53;;;9.10;59.00;;;;;;5092107;28;20055;-85
2024/02/28 09:16:11;;;;;;;7.25;4.43;;;8.60;59.60;;;;;;5090702;28;20104;-85
2024/02/28 09:18:37;;;;;;;10.10;7.15;;;8.30;60.80;;;;;;5090762;28;20082;-84
2024/02/28 09:21:03;;;;;;;7.13;4.53;;;8.60;61.50;;;;;;5091682;28;20103;-84
2024/02/28 09:23:30;;;;;;;11.90;4.97;;;9.00;60.70;;;;;;5091946;28;20065;-83
2024/02/28 09:25:56;;;;;;;14.17;6.87;;;9.50;59.70;;;;;;5091989;28;20025;-83
2024/02/28 09:28:21;;;;;;;10.52;5.88;;;9.30;59.10;;;;;;5092240;28;20078;-84
2024/02/28 09:30:50;;;;;;;11.38;7.25;;;9.90;59.70;;;;;;5090284;28;20020;-84
2024/02/28 09:33:15;;;;;;;11.05;5.97;;;10.70;58.30;;;;;;5090051;28;20119;-85
2024/02/28 09:35:42;;;;;;;14.80;8.93;;;11.70;55.50;;;;;;5094171;28;20429;-84
2024/02/28 09:38:07;;;;;;;11.25;6.90;;;11.60;54.80;;;;;;5092789;28;20105;-85
2024/02/28 09:40:33;;;;;;;11.27;7.70;;;11.90;54.40;;;;;;5091898;28;20423;-82
2024/02/28 09:43:03;;;;;;;12.30;7.88;;;12.40;53.70;;;;;;5076473;28;20434;-85
2024/02/28 09:45:31;;;;;;;10.52;6.90;;;13.50;52.70;;;;;;5093146;28;20040;-83
2024/02/28 09:47:57;;;;;;;;;;;13.20;51.10;;;;;;5093166;28;20016;-83
2024/02/28 09:50:25;;;;;;;17.20;7.72;;;13.70;52.10;;;;;;5092836;28;19956;-83
2024/02/28 09:52:51;;;;;;;13.02;8.48;;;13.50;49.50;;;;;;5093028;28;20103;-84
2024/02/28 09:55:17;;;;;;;12.95;7.68;;;13.80;50.40;;;;;;5096194;28;20048;-83
2024/02/28 09:57:46;;;;;;;11.25;6.97;;;14.40;49.30;;;;;;5095159;28;20081;-83
2024/02/28 10:00:14;;;;;;;15.38;8.05;;;14.30;48.30;;;;;;5093563;28;20425;-83
2024/02/28 10:02:42;;;;;;;;;;;13.80;48.90;;;;;;5095638;28;20106;-84
2024/02/28 10:05:11;;;;;;;17.13;9.63;;;14.10;50.30;;;;;;5095649;28;19911;-84
2024/02/28 10:07:37;;;;;;;13.57;7.40;;;13.60;49.10;;;;;;5094937;28;20012;-86
2024/02/28 10:10:03;;;;;;;15.85;9.98;;;13.60;48.70;;;;;;5094863;28;20073;-82
2024/02/28 10:12:29;;;;;;;10.57;6.90;;;13.40;49.40;;;;;;5095217;28;20024;-84
2024/02/28 10:14:55;;;;;;;14.68;9.20;;;13.30;48.60;;;;;;5095086;28;20102;-85
2024/02/28 10:17:21;;;;;;;11.05;7.07;;;12.50;50.40;;;;;;5093290;28;20016;-84
2024/02/28 10:19:47;;;;;;;12.73;7.68;;;13.00;49.90;;;;;;5094579;28;20020;-85
2024/02/28 10:22:13;;;;;;;13.43;7.97;;;11.90;50.40;;;;;;5094641;28;20077;-82
2024/02/28 10:24:39;;;;;;;17.67;10.57;;;11.70;51.50;;;;;;5094471;28;20008;-83
2024/02/28 10:27:05;;;;;;;10.95;6.53;;;10.90;52.20;;;;;;5093204;28;20081;-84
2024/02/28 10:29:34;;;;;;;12.32;7.55;;;10.50;52.60;;;;;;5093500;28;20017;-82
2024/02/28 10:32:00;;;;;;;9.82;5.88;;;9.70;54.50;;;;;;5094973;28;20031;-84
2024/02/28 10:34:26;;;;;;;10.35;7.80;;;9.20;55.20;;;;;;5095487;28;20028;-85
2024/02/28 10:36:52;;;;;;;6.93;3.72;;;8.20;57.40;;;;;;5094953;28;20036;-83
2024/02/28 10:39:18;;;;;;;14.40;8.20;;;7.50;59.00;;;;;;5094822;28;20020;-84
2024/02/28 10:41:47;;;;;;;22.02;9.05;;;7.10;60.20;;;;;;5093744;28;20081;-82
2024/02/28 10:44:13;;;;;;;14.43;8.38;;;7.10;60.90;;;;;;5094785;28;20480;-85
2024/02/28 10:46:39;;;;;;;14.48;8.50;;;7.00;61.80;;;;;;5095069;28;20022;-82
2024/02/28 10:49:06;;;;;;;15.60;7.30;;;7.00;62.10;;;;;;5094874;28;20024;-82
2024/02/28 10:51:36;;;;;;;12.00;6.68;;;7.00;62.50;;;;;;5092633;28;20020;-85
2024/02/28 10:54:13;;;;;;;14.65;8.48;;;6.70;63.20;;;;;;5082146;28;20077;-84
2024/02/28 10:56:42;;;;;;;11.07;8.20;;;6.50;64.00;;;;;;5095166;28;20017;-83
2024/02/28 10:59:10;;;;;;;15.27;9.68;;;6.60;64.20;;;;;;5092951;28;20341;-84
2024/02/28 11:01:43;;;;;;;12.65;6.97;;;6.30;64.90;;;;;;5093188;28;20442;-83
2024/02/28 11:04:10;;;;;;;16.08;9.65;;;6.40;65.30;;;;;;5091228;28;20024;-82
2024/02/28 11:06:50;;;;;;;21.77;11.25;;;6.30;65.90;;;;;;5081688;28;20020;-82
2024/02/28 11:09:22;;;;;;;22.30;11.45;;;6.30;66.30;;;;;;5079657;28;20111;-84
2024/02/28 11:11:50;;;;;;;13.68;7.97;;;6.30;66.50;;;;;;5093951;28;20027;-83
2024/02/28 11:14:16;;;;;;;15.93;9.98;;;6.30;66.50;;;;;;5093701;28;20206;-84
2024/02/28 11:16:46;;;;;;;17.75;8.77;;;6.20;66.90;;;;;;5093801;28;20020;-84
2024/02/28 11:19:22;;;;;;;20.45;10.50;;;6.30;66.80;;;;;;5093236;28;20121;-82
2024/02/28 11:21:55;;;;;;;16.33;10.13;;;6.20;68.00;;;;;;5095534;28;20429;-84
2024/02/28 11:24:25;;;;;;;10.15;6.00;;;6.10;67.60;;;;;;5100902;28;20449;-83
2024/02/28 11:26:52;;;;;;;16.35;10.13;;;6.00;67.50;;;;;;5097560;28;20408;-82
2024/02/28 11:29:25;;;;;;;;;;;5.80;68.60;;;;;;5101251;28;20016;-82
2024/02/28 11:31:52;;;;;;;16.35;8.57;;;5.80;68.40;;;;;;5089366;28;19904;-83
2024/02/28 11:34:18;;;;;;;14.32;8.38;;;5.80;69.00;;;;;;5099291;28;20039;-84
2024/02/28 11:36:46;;;;;;;10.95;6.85;;;5.70;69.20;;;;;;5095578;28;20016;-84
2024/02/28 11:39:13;;;;;;;15.35;6.03;;;5.60;69.80;;;;;;5093382;28;20027;-85
2024/02/28 11:41:39;;;;;;;14.30;8.18;;;5.50;69.90;;;;;;5094136;28;20032;-83
2024/02/28 11:44:05;;;;;;;12.18;6.75;;;5.40;70.40;;;;;;5093899;28;20443;-82
2024/02/28 11:46:32;;;;;;;16.25;10.25;;;5.40;70.60;;;;;;5097993;28;20020;-84
2024/02/28 11:48:58;;;;;;;18.80;8.95;;;5.40;71.00;;;;;;5104057;28;20016;-83
2024/02/28 11:51:24;;;;;;;14.73;8.82;;;5.40;71.10;;;;;;5096454;28;20075;-86
2024/02/28 11:53:50;;;;;;;21.13;8.68;;;5.40;71.30;;;;;;5093346;28;20076;-83
2024/02/28 11:56:19;;;;;;;17.67;8.35;;;5.40;71.30;;;;;;5093484;28;20020;-83
2024/02/28 11:58:52;;;;;;;18.83;7.93;;;5.40;71.70;;;;;;5093307;28;20053;-83
2024/02/28 12:01:18;;;;;;;10.88;7.38;;;5.50;71.50;;;;;;5091631;28;20434;-83
2024/02/28 12:03:46;;;;;;;16.38;10.35;;;5.50;72.20;;;;;;5093257;28;20031;-84
2024/02/28 12:06:12;;;;;;;12.82;7.30;;;5.50;71.90;;;;;;5093520;28;20073;-84
2024/02/28 12:08:38;;;;;;;14.63;8.43;;;5.50;72.00;;;;;;5092870;28;20548;-85
2024/02/28 12:11:10;;;;;;;14.65;7.60;;;5.50;72.40;;;;;;5092136;28;20393;-85
2024/02/28 12:13:37;;;;;;;15.85;8.52;;;5.50;72.60;;;;;;5093133;28;20024;-85
2024/02/28 12:16:03;;;;;;;12.52;7.18;;;5.50;72.80;;;;;;5092900;28;20366;-84
2024/02/28 12:18:29;;;;;;;13.88;6.20;;;5.50;72.90;;;;;;5093748;28;20041;-85
2024/02/28 12:20:55;;;;;;;14.02;8.57;;;5.60;72.90;;;;;;5093378;28;20027;-84
2024/02/28 12:23:22;;;;;;;21.50;7.68;;;5.50;73.20;;;;;;5091526;28;20028;-84
2024/02/28 12:25:48;;;;;;;13.48;7.90;;;5.50;73.30;;;;;;5092517;28;20016;-84
2024/02/28 12:28:14;;;;;;;16.25;9.00;;;5.60;73.30;;;;;;5091197;28;20550;-84
2024/02/28 12:30:42;;;;;;;13.93;8.02;;;5.60;73.50;;;;;;5091031;28;20455;-84
2024/02/28 12:33:14;;;;;;;12.88;6.72;;;5.60;73.30;;;;;;5092210;28;20423;-82
2024/02/28 12:35:41;;;;;;;14.48;8.18;;;5.60;73.20;;;;;;5092232;28;20060;-83
2024/02/28 12:38:07;;;;;;;;;;;5.60;73.60;;;;;;5090995;28;20543;-84
2024/02/28 12:40:33;;;;;;;12.57;7.28;;;5.60;73.50;;;;;;5092750;28;19951;-85